Airfield :
LOGIN :

Register | Disclaimer

   EN    FR    IT 

 










Legend :    VFR   Marginal VFR   IFR   Intensive IFR   Very Intensive IFR
Visi :
Ceiling :
>= 8 km
>= 3000ft
5 to 8 km
1000 to 3000 ft
1500m to 5 km
500 to 1000 ft
800 to 1500m
200 to 500 ft
< 800m
< 200 ft
Symbols :   Thunderstorms  Fog  Heavy snow  Heavy precipitations  Wind > 20 kt
SIGMETs :     Misc.  Thunderstorms  Icing  Turbulence  Mountain Waves  Volcanic Ashes






- Airport Elevation : 479 ft
- IATA code : DOL


LFRG - Deauville

CURRENT METAR :
  • 271430Z AUTO 32013G24KT 280V360 9999 BKN020 BKN026 OVC034 06/02 Q1006 NOSIG

EXPIRED METARs :
  • 271400Z AUTO 32013KT 270V010 9999 BKN019 BKN026 OVC032 06/03 Q1005 BECMG 32020G35KT
  • 271330Z AUTO 32016G26KT 280V360 9999 BKN018 OVC024 06/02 Q1003 NOSIG
  • 271300Z AUTO 32016G29KT 280V360 9999 BKN017 OVC024 06/03 Q1002 NOSIG
  • 271230Z AUTO 31017G36KT 270V360 9999 OVC016 06/04 Q1001 NOSIG
  • 271200Z AUTO 32014G26KT 280V360 9999 SCT008 BKN013 OVC018 06/04 Q0999 TEMPO 32025G45KT SHRA BECMG BKN020

TAF TAF LFRG
Valid from the 27 at 15:00 until the 28 at 00:00 UTC


271400Z 2715/2724 32015G30KT 9999 SCT020
BECMG 2717/2719 31010KT
BECMG 2721/2723 23007KT
ATIS : +33 2 31 65 65 36



MET'MAP, your aeronautical weather chart ! - Copyright ORBIFLY December 2007 - Disclaimer

ORBIFLY MET'MAP TEAM :

Programming & Development : Alexandra Zaïnal
Concept & original design : Baudouin d'Aumeries
Assistance for programming : Marc-Olivier Méhu
Technical & hardware support : Manuel Goepfert

Contact : metmap@orbifly.com




SOURCES & CREDITS :

   NOAA